Time;durP1;ratioP1;P1;durP2;ratioP2;P2;SDS_P1;SDS_P2;PMS_P1;PMS_P2;Temp;Humidity;BMP_temperature;BMP_pressure;BME280_temperature;BME280_humidity;BME280_pressure;Samples;Min_cycle;Max_cycle;Signal;HPM_P1;HPM_P2
2024/04/19 01:06:31;101450.00;0.34;176.07;0.00;0.00;0.62;;;;;9.60;1.00;;;;;;2311496;59;3627;31
2024/04/19 02:04:27;23833.00;0.08;41.91;0.00;0.00;0.62;;;;;8.90;1.00;;;;;;2560853;53;1770;31
2024/04/19 02:39:46;1170923.00;3.90;2037.74;0.00;0.00;0.62;;;;;9.70;1.00;;;;;;2301552;61;3554;31
2024/04/19 02:44:57;266724.00;0.89;460.71;0.00;0.00;0.62;;;;;9.60;1.00;;;;;;2316911;61;1785;31
2024/04/19 02:57:41;640073.00;2.13;1103.47;0.00;0.00;0.62;;;;;9.90;1.00;;;;;;2300656;61;3506;31
2024/04/19 03:00:09;841397.00;2.80;1453.42;23022.00;0.08;40.50;;;;;10.10;1.00;;;;;;2300966;61;3656;31
2024/04/19 03:07:52;10076.00;0.03;18.08;0.00;0.00;0.62;;;;;10.20;1.00;;;;;;2311300;61;1810;31
2024/04/19 03:25:22;563619.00;1.88;971.44;0.00;0.00;0.62;;;;;10.00;1.00;;;;;;2301483;61;3549;31
2024/04/19 03:42:58;783742.00;2.61;1352.78;0.00;0.00;0.62;;;;;9.70;1.00;;;;;;2302554;61;3506;31
2024/04/19 04:08:38;412807.00;1.38;711.82;0.00;0.00;0.62;;;;;9.60;1.00;;;;;;2307832;61;3384;31
2024/04/19 04:11:12;690872.00;2.30;1191.41;0.00;0.00;0.62;;;;;9.30;1.00;;;;;;2146338;67;1657;-88
2024/04/19 04:13:40;226076.00;0.75;390.80;92638.00;0.31;160.86;;;;;9.40;1.00;;;;;;2130532;67;854;-92
2024/04/19 05:09:35;715372.00;2.38;1233.91;0.00;0.00;0.62;;;;;10.30;1.00;;;;;;2302449;61;3413;31
2024/04/19 05:24:39;587484.00;1.96;1012.61;0.00;0.00;0.62;;;;;10.60;1.00;;;;;;2302181;61;3405;31
2024/04/19 05:54:44;802780.00;2.68;1385.97;19533.00;0.07;34.46;;;;;9.70;1.00;;;;;;2303741;61;3414;31
2024/04/19 06:24:58;636880.00;2.12;1097.94;0.00;0.00;0.62;;;;;9.70;1.00;;;;;;2302773;61;3423;31
2024/04/19 06:30:18;608629.00;2.03;1049.12;22797.00;0.08;40.11;;;;;9.60;1.00;;;;;;2302960;61;3391;31
2024/04/19 07:20:17;476627.00;1.59;821.59;95278.00;0.32;165.42;;;;;11.10;1.00;;;;;;2153835;67;1353;-88
2024/04/19 07:32:54;706440.00;2.35;1218.41;88708.00;0.30;154.08;;;;;10.60;1.00;;;;;;2302653;61;3473;31
2024/04/19 07:35:25;1074177.00;3.58;1864.30;0.00;0.00;0.62;;;;;10.30;1.00;;;;;;2307134;61;3591;31
2024/04/19 08:23:37;630170.00;2.10;1086.34;39127.00;0.13;68.38;;;;;10.00;1.00;;;;;;2302332;61;3373;31
2024/04/19 08:31:42;532322.00;1.77;917.49;0.00;0.00;0.62;;;;;10.40;1.00;;;;;;2307780;61;3590;31
2024/04/19 08:34:14;517387.00;1.72;891.76;0.00;0.00;0.62;;;;;10.80;1.00;;;;;;2296420;61;3469;31
2024/04/19 08:39:15;328101.00;1.09;566.22;0.00;0.00;0.62;;;;;10.50;1.00;;;;;;1947100;61;3563;-89
2024/04/19 08:52:09;28171.00;0.09;49.42;0.00;0.00;0.62;;;;;9.70;1.00;;;;;;2199708;61;3148;31
2024/04/19 09:32:40;1175331.00;3.92;2045.68;16422.00;0.05;29.07;;;;;9.40;1.00;;;;;;2303270;61;3653;31
2024/04/19 09:52:59;820479.00;2.73;1416.86;79979.00;0.27;139.00;;;;;9.60;1.00;;;;;;2303964;61;3448;31
2024/04/19 10:25:55;501029.00;1.67;863.60;0.00;0.00;0.62;;;;;9.50;1.00;;;;;;2159008;66;1073;-89
2024/04/19 10:28:24;195072.00;0.65;337.44;0.00;0.00;0.62;;;;;9.30;1.00;;;;;;2142001;67;1867;-94
2024/04/19 10:30:52;232244.00;0.77;401.41;0.00;0.00;0.62;;;;;9.00;1.00;;;;;;2136542;67;837;-94
2024/04/19 11:14:39;626734.00;2.09;1080.40;0.00;0.00;0.62;;;;;8.70;1.00;;;;;;2303375;61;3431;31
2024/04/19 11:17:20;577941.00;1.93;996.15;0.00;0.00;0.62;;;;;8.90;1.00;;;;;;2297123;61;3420;31
2024/04/19 11:22:22;645937.00;2.15;1113.61;90543.00;0.30;157.25;;;;;8.90;1.00;;;;;;2159360;66;1511;-94
2024/04/19 11:53:23;758856.00;2.53;1309.46;0.00;0.00;0.62;;;;;9.00;1.00;;;;;;2304574;61;3459;31
2024/04/19 12:47:10;934828.00;3.12;1617.37;83330.00;0.28;144.79;;;;;9.20;1.00;;;;;;2311115;61;2214;31
2024/04/19 13:25:30;192105.00;0.64;332.33;0.00;0.00;0.62;;;;;9.00;1.00;;;;;;2158604;66;1134;-91
2024/04/19 13:33:04;383590.00;1.28;661.60;0.00;0.00;0.62;;;;;9.00;1.00;;;;;;2158608;66;1189;-90
2024/04/19 13:35:32;280160.00;0.93;483.81;43805.00;0.15;76.47;;;;;9.30;1.00;;;;;;2159149;66;1593;-89
2024/04/19 13:43:09;331078.00;1.10;571.34;53997.00;0.18;94.10;;;;;9.00;1.00;;;;;;2153037;67;1100;-91
2024/04/19 13:45:38;106495.00;0.35;184.78;0.00;0.00;0.62;;;;;9.10;1.00;;;;;;2153606;67;1644;-91
2024/04/19 13:48:08;71347.00;0.24;124.09;0.00;0.00;0.62;;;;;8.90;1.00;;;;;;2153445;66;1866;-90
2024/04/19 13:50:36;50491.00;0.17;88.04;0.00;0.00;0.62;;;;;8.80;1.00;;;;;;2153622;67;1695;-90
2024/04/19 13:53:06;103435.00;0.34;179.50;0.00;0.00;0.62;;;;;8.80;1.00;;;;;;2153523;67;1526;-88
2024/04/19 14:36:41;433542.00;1.45;747.48;0.00;0.00;0.62;;;;;9.30;1.00;;;;;;2331088;60;3443;31
2024/04/19 14:44:20;929702.00;3.10;1608.35;64720.00;0.22;112.64;;;;;9.30;1.00;;;;;;2172719;66;1262;-90
2024/04/19 14:46:56;466650.00;1.56;804.43;94600.00;0.32;164.25;;;;;9.10;1.00;;;;;;2312041;60;3652;31
2024/04/19 15:23:35;567620.00;1.89;978.34;0.00;0.00;0.62;;;;;8.10;2.20;;;;;;2320321;60;3438;31
2024/04/19 15:26:30;151149.00;0.50;261.79;0.00;0.00;0.62;;;;;8.30;1.70;;;;;;2304021;61;3491;31
2024/04/19 15:47:17;635374.00;2.12;1095.34;0.00;0.00;0.62;;;;;8.90;1.00;;;;;;2311381;61;1818;31
2024/04/19 16:04:59;36417.00;0.12;63.69;0.00;0.00;0.62;;;;;9.00;1.00;;;;;;2200560;61;3427;31
2024/04/19 16:25:17;232713.00;0.78;402.22;0.00;0.00;0.62;;;;;9.70;1.00;;;;;;2169850;66;1366;-87
2024/04/19 16:27:45;93747.00;0.31;162.78;0.00;0.00;0.62;;;;;9.70;1.00;;;;;;2172503;61;3684;-88
2024/04/19 16:30:15;0.00;0.00;0.62;0.00;0.00;0.62;;;;;9.40;1.00;;;;;;2170336;66;1003;-89
2024/04/19 16:32:43;29286.00;0.10;51.35;0.00;0.00;0.62;;;;;9.50;1.00;;;;;;2170167;66;1620;-90
2024/04/19 16:35:12;66484.00;0.22;115.68;0.00;0.00;0.62;;;;;9.50;1.00;;;;;;2170430;66;1907;-87
2024/04/19 16:40:24;57883.00;0.19;100.82;0.00;0.00;0.62;;;;;10.00;1.00;;;;;;2170330;66;1351;-88
2024/04/19 16:42:52;37068.00;0.12;64.82;0.00;0.00;0.62;;;;;9.70;1.00;;;;;;2170994;66;415;-89
2024/04/19 16:45:21;0.00;0.00;0.62;0.00;0.00;0.62;;;;;9.70;1.00;;;;;;2170994;66;857;-88
2024/04/19 16:47:50;5989.00;0.02;11.00;0.00;0.00;0.62;;;;;10.10;1.00;;;;;;2169502;66;1185;-87
2024/04/19 16:50:20;42697.00;0.14;74.55;0.00;0.00;0.62;;;;;9.70;1.00;;;;;;2164740;66;1564;-88
2024/04/19 16:52:48;113591.00;0.38;197.03;0.00;0.00;0.62;;;;;9.70;1.00;;;;;;2173338;61;3676;-87
2024/04/19 17:00:19;74033.00;0.25;128.73;0.00;0.00;0.62;;;;;9.80;1.00;;;;;;2170468;66;1364;-88
2024/04/19 17:02:48;0.00;0.00;0.62;0.00;0.00;0.62;;;;;9.90;1.00;;;;;;2170902;66;2401;-87
2024/04/19 17:07:44;59115.00;0.20;102.95;0.00;0.00;0.62;;;;;9.50;1.00;;;;;;2168454;66;1386;-88
2024/04/19 17:10:13;10540.00;0.04;18.88;0.00;0.00;0.62;;;;;9.80;1.00;;;;;;2164683;66;904;-88
2024/04/19 17:12:42;0.00;0.00;0.62;0.00;0.00;0.62;;;;;9.70;1.00;;;;;;2164715;66;1492;-87
2024/04/19 17:15:11;34864.00;0.12;61.00;0.00;0.00;0.62;;;;;9.80;1.00;;;;;;2164618;66;1867;-87
2024/04/19 17:17:42;12751.00;0.04;22.71;0.00;0.00;0.62;;;;;9.90;1.00;;;;;;2178994;60;3546;-86
2024/04/19 17:22:40;245407.00;0.82;424.05;0.00;0.00;0.62;;;;;9.30;1.00;;;;;;2169725;66;1436;-86
2024/04/19 17:30:13;183168.00;0.61;316.95;0.00;0.00;0.62;;;;;10.10;1.00;;;;;;2179964;60;3441;-87
2024/04/19 17:32:44;114610.00;0.38;198.78;21017.00;0.07;37.03;;;;;10.00;1.00;;;;;;2180019;61;3508;-88
2024/04/19 17:35:14;0.00;0.00;0.62;0.00;0.00;0.62;;;;;9.90;1.00;;;;;;2170417;66;1907;-87
2024/04/19 17:37:43;121459.00;0.40;210.60;0.00;0.00;0.62;;;;;10.20;1.00;;;;;;2170298;66;1233;-86
2024/04/19 17:40:13;27089.00;0.09;47.54;0.00;0.00;0.62;;;;;10.20;1.00;;;;;;2170343;66;1093;-86
2024/04/19 17:42:41;4373.00;0.01;8.20;0.00;0.00;0.62;;;;;10.60;1.00;;;;;;2170253;66;940;-86
2024/04/19 17:45:12;33143.00;0.11;58.02;0.00;0.00;0.62;;;;;10.70;1.00;;;;;;2170909;66;1190;-84
2024/04/19 17:47:45;12669.00;0.04;22.57;0.00;0.00;0.62;;;;;10.50;1.00;;;;;;2170390;66;1337;-87
2024/04/19 17:50:14;0.00;0.00;0.62;0.00;0.00;0.62;;;;;10.40;1.00;;;;;;2165685;66;1465;-86
2024/04/19 17:52:42;35258.00;0.12;61.68;0.00;0.00;0.62;;;;;10.60;1.00;;;;;;2176463;60;3515;-87
2024/04/19 17:55:11;11911.00;0.04;21.26;0.00;0.00;0.62;;;;;10.70;1.00;;;;;;2169974;66;1901;-87
2024/04/19 17:57:39;54022.00;0.18;94.14;0.00;0.00;0.62;;;;;10.70;1.00;;;;;;2170257;66;1441;-87
2024/04/19 18:00:09;77347.00;0.26;134.45;0.00;0.00;0.62;;;;;10.20;1.00;;;;;;2170257;66;1429;-86
2024/04/19 18:02:38;0.00;0.00;0.62;0.00;0.00;0.62;;;;;10.10;1.00;;;;;;2170476;66;1025;-86
2024/04/19 18:05:09;76486.00;0.25;132.97;0.00;0.00;0.62;;;;;10.60;1.00;;;;;;2171661;60;3516;-86
2024/04/19 18:07:39;7965.00;0.03;14.42;0.00;0.00;0.62;;;;;10.50;1.00;;;;;;2170368;66;1362;-87
2024/04/19 18:10:08;0.00;0.00;0.62;0.00;0.00;0.62;;;;;10.30;1.00;;;;;;2170386;66;1293;-87
2024/04/19 18:12:37;0.00;0.00;0.62;0.00;0.00;0.62;;;;;10.00;1.00;;;;;;2170458;66;1062;-86
2024/04/19 18:15:06;0.00;0.00;0.62;0.00;0.00;0.62;;;;;10.30;1.00;;;;;;2170451;66;1902;-86
2024/04/19 18:17:35;15410.00;0.05;27.32;0.00;0.00;0.62;;;;;10.70;1.00;;;;;;2170796;66;1589;-85
2024/04/19 18:20:04;0.00;0.00;0.62;0.00;0.00;0.62;;;;;10.60;1.00;;;;;;2170253;66;883;-86
2024/04/19 18:22:36;0.00;0.00;0.62;0.00;0.00;0.62;;;;;10.30;1.00;;;;;;2170344;66;1591;-85
2024/04/19 18:25:05;25525.00;0.09;44.84;0.00;0.00;0.62;;;;;10.20;1.00;;;;;;2170287;66;1623;-87
2024/04/19 18:27:35;539.00;0.00;1.55;0.00;0.00;0.62;;;;;10.20;1.00;;;;;;2170116;66;1564;-86
2024/04/19 18:30:03;43645.00;0.15;76.19;0.00;0.00;0.62;;;;;10.30;1.00;;;;;;2170332;66;1535;-87
2024/04/19 18:32:33;0.00;0.00;0.62;0.00;0.00;0.62;;;;;10.10;1.00;;;;;;2170337;66;1003;-86
2024/04/19 18:35:03;32095.00;0.11;56.21;0.00;0.00;0.62;;;;;10.20;1.00;;;;;;2170230;66;1895;-86
2024/04/19 18:37:35;30421.00;0.10;53.31;0.00;0.00;0.62;;;;;10.20;1.00;;;;;;2170337;66;1250;-87
2024/04/19 18:40:04;30774.00;0.10;53.92;0.00;0.00;0.62;;;;;10.10;1.00;;;;;;2170372;66;1093;-86
2024/04/19 18:42:33;61163.00;0.20;106.49;0.00;0.00;0.62;;;;;10.30;1.00;;;;;;2170437;66;1072;-87
2024/04/19 18:45:01;12201.00;0.04;21.76;0.00;0.00;0.62;;;;;10.40;1.00;;;;;;2170273;66;1656;-87
2024/04/19 18:47:30;27900.00;0.09;48.95;0.00;0.00;0.62;;;;;10.60;1.00;;;;;;2170325;66;1965;-86
2024/04/19 18:49:58;99790.00;0.33;173.21;0.00;0.00;0.62;;;;;10.50;1.00;;;;;;2170349;66;1591;-86
2024/04/19 18:52:27;0.00;0.00;0.62;0.00;0.00;0.62;;;;;10.50;1.00;;;;;;2170378;66;949;-86
2024/04/19 18:55:00;25241.00;0.08;44.34;0.00;0.00;0.62;;;;;10.60;1.00;;;;;;2170206;66;1899;-87
2024/04/19 18:57:28;0.00;0.00;0.62;0.00;0.00;0.62;;;;;10.50;1.00;;;;;;2170177;66;1221;-87
2024/04/19 18:59:59;23568.00;0.08;41.45;0.00;0.00;0.62;;;;;10.10;1.00;;;;;;2170268;66;939;-86
2024/04/19 19:04:55;32931.00;0.11;57.66;0.00;0.00;0.62;;;;;9.50;1.00;;;;;;2169603;66;1424;-88
2024/04/19 19:07:23;32388.00;0.11;56.72;0.00;0.00;0.62;;;;;9.70;1.00;;;;;;2181823;61;3514;-87
2024/04/19 19:09:53;0.00;0.00;0.62;0.00;0.00;0.62;;;;;9.90;1.00;;;;;;2175634;65;1462;-88
2024/04/19 19:19:53;361626.00;1.21;623.84;0.00;0.00;0.62;;;;;6.90;1.00;;;;;;2229989;60;3568;-86
2024/04/19 19:47:45;756087.00;2.52;1304.64;0.00;0.00;0.62;;;;;10.10;1.00;;;;;;2317058;60;3359;31
2024/04/19 19:55:24;703119.00;2.34;1212.65;92889.00;0.31;161.30;;;;;11.00;1.00;;;;;;2164208;66;1860;-91
2024/04/19 20:10:31;365287.00;1.22;630.14;0.00;0.00;0.62;;;;;10.10;1.00;;;;;;2177466;60;3525;-86
2024/04/19 20:13:00;268919.00;0.90;464.49;0.00;0.00;0.62;;;;;10.50;1.00;;;;;;2169727;66;1597;-89
2024/04/19 20:15:29;117772.00;0.39;204.24;0.00;0.00;0.62;;;;;10.90;1.00;;;;;;2187472;60;3597;-86
2024/04/19 20:20:33;524190.00;1.75;903.48;0.00;0.00;0.62;;;;;11.00;1.00;;;;;;852514;61;3549;-87
2024/04/19 20:23:03;370884.00;1.24;639.76;0.00;0.00;0.62;;;;;11.40;1.00;;;;;;2174034;60;3585;-88
2024/04/19 20:25:34;193556.00;0.65;334.83;0.00;0.00;0.62;;;;;11.00;1.00;;;;;;2191704;61;3599;-87
2024/04/19 20:28:03;397923.00;1.33;686.23;0.00;0.00;0.62;;;;;11.60;1.00;;;;;;2221507;60;3609;-88
2024/04/19 20:30:32;0.00;0.00;0.62;0.00;0.00;0.62;;;;;11.20;1.00;;;;;;2169711;66;1496;-88
2024/04/19 20:33:01;424609.00;1.42;732.12;0.00;0.00;0.62;;;;;11.00;1.00;;;;;;2185977;61;3615;-89
2024/04/19 20:43:08;495225.00;1.65;853.60;0.00;0.00;0.62;;;;;10.90;1.00;;;;;;2189771;60;3501;-87
2024/04/19 20:55:41;654392.00;2.18;1128.24;81407.00;0.27;141.47;;;;;11.30;1.00;;;;;;2171661;60;3458;-88
2024/04/19 21:00:41;1038155.00;3.46;1800.17;93492.00;0.31;162.34;;;;;11.30;1.00;;;;;;2191949;60;3439;-88
2024/04/19 21:03:10;121536848.00;405.12;72726640.00;78975.00;0.26;137.27;;;;;11.10;1.00;;;;;;2170026;66;923;-86
2024/04/19 21:05:38;383791.00;1.28;661.94;84158.00;0.28;146.22;;;;;11.00;1.00;;;;;;2175691;65;943;-86
2024/04/19 21:08:08;346782.00;1.16;598.33;89894.00;0.30;156.12;;;;;10.80;1.00;;;;;;2175962;65;1634;-88
2024/04/19 21:10:36;582911.00;1.94;1004.72;88735.00;0.30;154.12;;;;;10.70;1.00;;;;;;2175751;65;1031;-86
2024/04/19 21:13:05;562296.00;1.87;969.16;92558.00;0.31;160.72;;;;;10.70;1.00;;;;;;2175737;65;1021;-86
2024/04/19 21:15:33;494430.00;1.65;852.23;99695.00;0.33;173.05;;;;;10.50;1.00;;;;;;2175567;65;1895;-85
2024/04/19 21:18:05;336342.00;1.12;580.39;88050.00;0.29;152.94;;;;;10.20;1.00;;;;;;2175815;65;1571;-87
2024/04/19 21:20:33;426971.00;1.42;736.18;89955.00;0.30;156.23;;;;;9.90;1.00;;;;;;2175769;65;1582;-87
2024/04/19 21:23:02;456381.00;1.52;786.76;90330.00;0.30;156.88;;;;;10.10;1.00;;;;;;2175615;65;1561;-85
2024/04/19 21:25:31;549232.00;1.83;946.64;89506.00;0.30;155.45;;;;;9.80;1.00;;;;;;2175730;65;899;-87
2024/04/19 21:28:00;388607.00;1.30;670.22;91649.00;0.31;159.15;;;;;9.50;1.00;;;;;;2175755;65;1619;-86
2024/04/19 21:30:29;429035.00;1.43;739.73;89437.00;0.30;155.34;;;;;9.90;1.00;;;;;;2175587;65;1651;-86
2024/04/19 21:32:58;482036.00;1.61;830.90;70368.00;0.23;122.40;;;;;9.90;1.00;;;;;;2175653;65;1519;-89
2024/04/19 21:35:29;326903.00;1.09;564.16;100652.00;0.34;174.70;;;;;10.20;1.00;;;;;;2175624;65;1900;-86
2024/04/19 21:37:58;441551.00;1.47;761.25;90274.00;0.30;156.78;;;;;10.20;1.00;;;;;;2175679;65;1405;-86
2024/04/19 21:40:27;447234.00;1.49;771.02;95902.00;0.32;166.50;;;;;10.30;1.00;;;;;;2175582;65;1474;-85
2024/04/19 21:42:56;298511.00;1.00;515.36;69987.00;0.23;121.74;;;;;10.10;1.00;;;;;;2175725;65;1292;-86
2024/04/19 21:45:25;328291.00;1.09;566.55;92621.00;0.31;160.83;;;;;9.90;1.00;;;;;;2175537;65;1033;-85
2024/04/19 21:47:54;277791.00;0.93;479.74;97245.00;0.32;168.82;;;;;10.00;1.00;;;;;;2175614;65;1553;-86
2024/04/19 21:50:23;202229.00;0.67;349.76;90449.00;0.30;157.08;;;;;10.40;1.00;;;;;;2175690;65;1096;-86
2024/04/19 21:52:54;273826.00;0.91;472.92;87119.00;0.29;151.33;;;;;10.30;1.00;;;;;;2175696;65;1591;-85
2024/04/19 21:55:23;296257.00;0.99;511.49;88774.00;0.30;154.19;;;;;10.70;1.00;;;;;;2175797;65;921;-87
2024/04/19 21:57:52;252569.00;0.84;436.37;86636.00;0.29;150.50;;;;;10.40;1.00;;;;;;2175881;65;1264;-86
2024/04/19 22:00:21;294016.00;0.98;507.63;91948.00;0.31;159.67;;;;;10.60;1.00;;;;;;2175558;65;1365;-86
2024/04/19 22:02:50;212610.00;0.71;367.63;87450.00;0.29;151.90;;;;;9.70;1.00;;;;;;2175727;65;981;-86
2024/04/19 22:05:19;237814.00;0.79;410.99;92013.00;0.31;159.78;;;;;10.00;1.00;;;;;;2175657;65;1562;-86
2024/04/19 22:07:47;251994.00;0.84;435.38;88594.00;0.30;153.88;;;;;10.40;1.00;;;;;;2175654;65;1237;-87
2024/04/19 22:10:19;324717.00;1.08;560.41;96175.00;0.32;166.97;;;;;10.80;1.00;;;;;;2175777;65;1231;-85
2024/04/19 22:12:47;261166.00;0.87;451.15;91543.00;0.31;158.97;;;;;11.20;1.00;;;;;;2175590;65;1102;-86
2024/04/19 22:15:16;376197.00;1.25;648.89;122159.00;0.41;211.81;;;;;11.20;1.00;;;;;;2175624;65;1587;-86
2024/04/19 22:17:44;255112.00;0.85;440.74;88507.00;0.30;153.73;;;;;11.00;1.00;;;;;;2175611;65;1866;-86
2024/04/19 22:20:13;82600.00;0.28;143.53;0.00;0.00;0.62;;;;;11.40;1.00;;;;;;2175620;65;1605;-86
2024/04/19 22:22:42;11094.00;0.04;19.84;0.00;0.00;0.62;;;;;11.40;1.00;;;;;;2175592;65;1562;-87
2024/04/19 22:25:12;51680.00;0.17;90.09;0.00;0.00;0.62;;;;;11.70;1.00;;;;;;2175691;65;971;-86
2024/04/19 22:27:44;32541.00;0.11;56.98;0.00;0.00;0.62;;;;;11.90;1.00;;;;;;2175637;65;1367;-86
2024/04/19 22:30:14;48873.00;0.16;85.24;0.00;0.00;0.62;;;;;12.10;1.00;;;;;;2175522;65;1050;-87
2024/04/19 22:32:43;52268.00;0.17;91.11;0.00;0.00;0.62;;;;;11.60;1.00;;;;;;2176134;65;1099;-87
2024/04/19 22:35:12;91342.00;0.30;158.62;0.00;0.00;0.62;;;;;11.40;1.00;;;;;;2179315;60;3521;-85
2024/04/19 22:37:40;89575.00;0.30;155.57;0.00;0.00;0.62;;;;;10.90;1.00;;;;;;2181328;65;1897;-86
2024/04/19 22:40:10;20083.00;0.07;35.41;0.00;0.00;0.62;;;;;10.60;1.00;;;;;;2181353;65;1409;-87
2024/04/19 22:42:40;284109.00;0.95;490.60;25573.00;0.09;44.92;;;;;10.90;1.00;;;;;;2181428;65;1355;-86
2024/04/19 22:45:11;56640.00;0.19;98.67;0.00;0.00;0.62;;;;;10.30;1.00;;;;;;2183011;60;3653;-87
2024/04/19 22:47:40;54028.00;0.18;94.15;0.00;0.00;0.62;;;;;10.00;1.00;;;;;;2175535;65;1313;-87
2024/04/19 22:50:09;118771072.00;395.90;67869424.00;118525760.00;395.09;67449384.00;;;;;10.40;1.00;;;;;;2175562;65;1703;-86
2024/04/19 22:52:39;15626.00;0.05;27.69;0.00;0.00;0.62;;;;;10.70;1.00;;;;;;2169880;66;1042;-86
2024/04/19 22:55:08;67759.00;0.23;117.89;0.00;0.00;0.62;;;;;11.10;1.00;;;;;;2169895;66;2264;-87
2024/04/19 22:57:38;14285.00;0.05;25.37;0.00;0.00;0.62;;;;;11.50;1.00;;;;;;2170146;66;1907;-86
2024/04/19 23:00:08;60908.00;0.20;106.05;0.00;0.00;0.62;;;;;11.40;1.00;;;;;;2170126;66;973;-86
2024/04/19 23:02:40;17021.00;0.06;30.11;0.00;0.00;0.62;;;;;11.60;1.00;;;;;;2170250;66;2283;-86
2024/04/19 23:05:09;57182.00;0.19;99.61;0.00;0.00;0.62;;;;;11.70;1.00;;;;;;2170285;66;1591;-85
2024/04/19 23:07:38;20004.00;0.07;35.28;0.00;0.00;0.62;;;;;11.80;1.00;;;;;;2170340;66;1280;-87
2024/04/19 23:10:08;23674.00;0.08;41.63;0.00;0.00;0.62;;;;;12.00;1.00;;;;;;2170273;66;1604;-86
2024/04/19 23:12:37;0.00;0.00;0.62;0.00;0.00;0.62;;;;;11.80;1.00;;;;;;2170426;66;841;-87
2024/04/19 23:15:07;60129.00;0.20;104.70;0.00;0.00;0.62;;;;;11.90;1.00;;;;;;2170381;66;927;-86
2024/04/19 23:17:35;11535.00;0.04;20.61;0.00;0.00;0.62;;;;;11.70;1.00;;;;;;2170259;66;1866;-87
2024/04/19 23:20:08;20022.00;0.07;35.31;0.00;0.00;0.62;;;;;11.80;1.00;;;;;;2170836;66;1612;-86
2024/04/19 23:22:36;29229.00;0.10;51.25;0.00;0.00;0.62;;;;;11.80;1.00;;;;;;2170446;66;913;-88
2024/04/19 23:25:06;23148.00;0.08;40.72;0.00;0.00;0.62;;;;;12.10;1.00;;;;;;2170296;66;879;-87
2024/04/19 23:27:34;9085.00;0.03;16.36;0.00;0.00;0.62;;;;;12.20;1.00;;;;;;2170288;66;1237;-87
2024/04/19 23:30:05;111994.00;0.37;194.27;0.00;0.00;0.62;;;;;11.90;1.00;;;;;;2170345;66;925;-87
2024/04/19 23:32:33;123274.00;0.41;213.73;0.00;0.00;0.62;;;;;12.00;1.00;;;;;;2170230;66;1682;-87
2024/04/19 23:35:02;16377.00;0.05;29.00;0.00;0.00;0.62;;;;;12.00;1.00;;;;;;2170350;66;1089;-87
2024/04/19 23:37:35;110637.00;0.37;191.93;0.00;0.00;0.62;;;;;12.20;1.00;;;;;;2170241;66;1897;-87
2024/04/19 23:40:04;34823.00;0.12;60.93;0.00;0.00;0.62;;;;;12.70;1.00;;;;;;2170301;66;1664;-87
2024/04/19 23:42:32;118511.00;0.40;205.51;0.00;0.00;0.62;;;;;12.30;1.00;;;;;;2170267;66;1109;-88
2024/04/19 23:45:01;129392.00;0.43;224.28;0.00;0.00;0.62;;;;;12.00;1.00;;;;;;2170195;66;1517;-88
2024/04/19 23:47:31;21600.00;0.07;38.04;0.00;0.00;0.62;;;;;11.90;1.00;;;;;;2170160;66;1538;-87
2024/04/19 23:49:59;124203.00;0.41;215.33;0.00;0.00;0.62;;;;;11.70;1.00;;;;;;2170302;66;956;-87
2024/04/19 23:52:28;10161.00;0.03;18.23;0.00;0.00;0.62;;;;;11.40;1.00;;;;;;2170270;66;1034;-87
2024/04/19 23:55:00;95535.00;0.32;165.86;0.00;0.00;0.62;;;;;11.40;1.00;;;;;;2170269;66;1254;-88
2024/04/19 23:57:28;5720.00;0.02;10.53;0.00;0.00;0.62;;;;;11.20;1.00;;;;;;2170239;66;1858;-87
2024/04/19 23:59:57;57920.00;0.19;100.88;0.00;0.00;0.62;;;;;10.90;1.00;;;;;;2170245;66;871;-87
